createdAt,value
2018-02-08T00:01:34.493Z,52.65
2018-02-08T00:04:01.129Z,50.92
2018-02-08T00:06:27.783Z,52.62
2018-02-08T00:08:54.424Z,52.10
2018-02-08T00:11:21.065Z,52.50
2018-02-08T00:13:47.791Z,55.55
2018-02-08T00:16:14.425Z,53.87
2018-02-08T00:18:41.161Z,55.65
2018-02-08T00:21:07.910Z,53.08
2018-02-08T00:23:34.654Z,53.75
2018-02-08T00:26:01.305Z,53.30
2018-02-08T00:28:28.033Z,55.67
2018-02-08T00:30:54.670Z,56.03
2018-02-08T00:33:21.429Z,55.20
2018-02-08T00:35:48.068Z,53.47
2018-02-08T00:38:14.788Z,51.65
2018-02-08T00:40:41.534Z,54.67
2018-02-08T00:43:08.276Z,54.75
2018-02-08T00:45:34.938Z,54.17
2018-02-08T00:48:01.656Z,50.65
2018-02-08T00:50:28.392Z,53.15
2018-02-08T00:52:55.038Z,56.10
2018-02-08T00:55:21.672Z,53.20
2018-02-08T00:57:48.330Z,52.40
2018-02-08T01:00:14.956Z,52.83
2018-02-08T01:02:41.598Z,51.37
2018-02-08T01:05:08.248Z,54.85
2018-02-08T01:07:34.893Z,55.75
2018-02-08T01:10:01.533Z,56.00
2018-02-08T01:12:28.244Z,55.58
2018-02-08T01:14:54.998Z,55.03
2018-02-08T01:17:21.647Z,52.88
2018-02-08T01:19:48.389Z,58.50
2018-02-08T01:22:15.113Z,56.30
2018-02-08T01:24:41.740Z,52.03
2018-02-08T01:27:08.405Z,54.67
2018-02-08T01:29:35.076Z,56.85
2018-02-08T01:32:01.714Z,54.90
2018-02-08T01:34:28.407Z,55.60
2018-02-08T01:36:55.148Z,56.20
2018-02-08T02:18:21.586Z,57.75
2018-02-08T02:20:48.197Z,54.30
2018-02-08T02:23:14.826Z,55.10
2018-02-08T02:25:41.448Z,58.03
2018-02-08T02:28:08.103Z,54.95
2018-02-08T02:30:34.716Z,55.10
2018-02-08T02:33:01.419Z,55.20
2018-02-08T02:35:28.056Z,55.63
2018-02-08T02:37:54.757Z,54.75
2018-02-08T02:40:21.372Z,55.35
2018-02-08T02:42:48.033Z,55.08
2018-02-08T02:45:14.677Z,53.95
2018-02-08T02:47:41.302Z,57.53
2018-02-08T02:50:07.995Z,56.90
2018-02-08T02:52:34.614Z,56.55
2018-02-08T02:55:01.217Z,56.70
2018-02-08T02:57:27.850Z,52.30
2018-02-08T02:59:54.513Z,55.90
2018-02-08T03:02:21.125Z,53.60
2018-02-08T03:04:47.758Z,55.95
2018-02-08T03:07:14.373Z,54.38
2018-02-08T03:09:40.998Z,57.85
2018-02-08T03:12:08.319Z,53.67
2018-02-08T03:14:35.057Z,54.20
2018-02-08T03:17:04.118Z,53.20
2018-02-08T03:19:30.965Z,56.47
2018-02-08T03:21:58.528Z,58.35
2018-02-08T03:24:25.355Z,55.87
2018-02-08T03:26:51.994Z,57.30
2018-02-08T03:29:18.634Z,56.72
2018-02-08T03:31:45.269Z,59.33
2018-02-08T03:34:11.886Z,54.03
2018-02-08T03:36:38.509Z,54.92
2018-02-08T03:39:05.246Z,56.22
2018-02-08T03:41:31.877Z,55.65
2018-02-08T03:43:58.517Z,56.83
2018-02-08T03:46:25.145Z,57.92
2018-02-08T03:48:51.807Z,53.72
2018-02-08T03:51:18.461Z,54.38
2018-02-08T03:53:45.186Z,56.80
2018-02-08T03:56:11.917Z,56.22
2018-02-08T03:58:38.560Z,57.75
2018-02-08T04:01:05.202Z,54.53
2018-02-08T04:03:31.936Z,55.95
2018-02-08T04:05:58.620Z,55.17
2018-02-08T04:08:25.317Z,56.15
2018-02-08T04:10:51.988Z,52.95
2018-02-08T04:13:18.597Z,56.33
2018-02-08T04:15:45.209Z,55.38
2018-02-08T04:18:11.841Z,56.10
2018-02-08T04:20:38.456Z,51.28
2018-02-08T04:23:05.197Z,53.08
2018-02-08T04:25:31.825Z,54.10
2018-02-08T04:27:58.445Z,53.05
2018-02-08T04:30:25.074Z,54.00
2018-02-08T04:32:51.754Z,52.83
2018-02-08T04:35:18.452Z,50.15
2018-02-08T04:37:45.067Z,52.65
2018-02-08T04:40:17.688Z,51.90
2018-02-08T04:42:50.349Z,54.42
2018-02-08T04:45:22.826Z,53.00
2018-02-08T04:47:58.313Z,53.78
2018-02-08T04:52:51.182Z,52.50
2018-02-08T05:56:14.865Z,51.85
2018-02-08T05:58:41.489Z,53.85
2018-02-08T06:01:09.342Z,50.45
2018-02-08T06:03:36.650Z,51.58
2018-02-08T06:06:03.949Z,50.53
2018-02-08T06:08:30.746Z,55.85
2018-02-08T06:10:57.356Z,51.63
2018-02-08T06:13:23.982Z,51.88
2018-02-08T06:15:50.610Z,52.63
2018-02-08T06:18:17.303Z,55.22
2018-02-08T06:20:43.909Z,51.80
2018-02-08T06:23:10.643Z,50.70
2018-02-08T06:25:37.849Z,50.60
2018-02-08T06:28:05.409Z,50.10
2018-02-08T06:30:32.375Z,51.97
2018-02-08T06:32:59.033Z,52.08
2018-02-08T06:35:25.661Z,54.03
2018-02-08T06:37:52.374Z,51.67
2018-02-08T06:40:18.977Z,50.10
2018-02-08T06:42:45.604Z,51.95
2018-02-08T06:45:12.218Z,54.88
2018-02-08T06:47:38.833Z,56.28
2018-02-08T06:50:05.461Z,52.03
2018-02-08T06:52:32.167Z,47.83
2018-02-08T06:54:58.847Z,52.85
2018-02-08T06:57:25.473Z,52.08
2018-02-08T06:59:52.088Z,51.90
2018-02-08T07:02:18.697Z,51.33
2018-02-08T07:04:45.329Z,50.58
2018-02-08T07:07:11.942Z,50.60
2018-02-08T07:09:38.644Z,52.22
2018-02-08T07:12:05.381Z,50.78
2018-02-08T07:14:32.063Z,51.35
2018-02-08T07:16:59.213Z,47.42
2018-02-08T07:19:25.955Z,51.83
2018-02-08T07:21:52.696Z,52.20
2018-02-08T07:24:19.306Z,50.40
2018-02-08T07:26:46.037Z,54.10
2018-02-08T07:29:12.665Z,51.65
2018-02-08T07:31:39.276Z,48.53
2018-02-08T07:34:05.962Z,50.60
2018-02-08T07:36:32.634Z,52.70
2018-02-08T07:38:59.374Z,52.00
2018-02-08T07:41:26.094Z,50.40
2018-02-08T07:43:52.727Z,49.97
2018-02-08T07:46:19.333Z,52.47
2018-02-08T07:48:45.950Z,50.10
2018-02-08T07:51:12.673Z,51.00
2018-02-08T07:53:39.284Z,50.33
2018-02-08T07:56:06.053Z,52.33
2018-02-08T07:58:32.674Z,50.05
2018-02-08T08:00:59.331Z,49.63
2018-02-08T08:03:25.941Z,51.50
2018-02-08T08:05:52.566Z,50.83
2018-02-08T08:08:19.178Z,49.10
2018-02-08T08:10:45.806Z,46.63
2018-02-08T08:13:12.481Z,50.03
2018-02-08T08:15:39.109Z,51.83
2018-02-08T08:18:05.721Z,52.67
2018-02-08T08:20:32.334Z,50.65
2018-02-08T09:15:03.629Z,53.00
2018-02-08T09:17:30.361Z,49.60
2018-02-08T09:19:56.997Z,49.17
2018-02-08T09:22:23.614Z,47.50
2018-02-08T09:24:50.241Z,51.22
2018-02-08T09:27:16.961Z,51.28
2018-02-08T09:29:43.567Z,47.60
2018-02-08T09:32:10.198Z,47.78
2018-02-08T09:34:36.801Z,50.00
2018-02-08T09:41:55.837Z,46.92
2018-02-08T09:44:22.578Z,50.75
2018-02-08T09:46:49.193Z,48.08
2018-02-08T09:49:15.816Z,50.92
2018-02-08T09:51:42.533Z,46.67
2018-02-08T09:54:09.142Z,48.92
2018-02-08T09:56:35.764Z,47.58
2018-02-08T09:59:02.552Z,51.50
2018-02-08T10:01:29.161Z,47.95
2018-02-08T10:03:55.790Z,45.78
2018-02-08T10:06:22.470Z,51.40
2018-02-08T10:08:49.174Z,50.63
2018-02-08T10:13:42.066Z,48.40
2018-02-08T10:45:23.359Z,45.53
2018-02-08T16:05:42.786Z,52.47
2018-02-08T16:08:09.422Z,50.53
2018-02-08T16:10:36.053Z,50.05
2018-02-08T16:13:02.669Z,51.10
2018-02-08T16:15:29.374Z,47.05
2018-02-08T16:17:56.074Z,45.83
2018-02-08T16:20:22.685Z,46.35
2018-02-08T17:33:30.220Z,48.60
2018-02-08T17:35:56.995Z,57.33
2018-02-08T17:38:23.698Z,53.58
2018-02-08T17:40:50.310Z,54.50
2018-02-08T17:43:16.947Z,53.83
2018-02-08T17:45:43.558Z,52.40
2018-02-08T17:48:10.250Z,55.88
2018-02-08T17:50:36.903Z,49.05
2018-02-08T17:53:03.508Z,52.22
2018-02-08T17:55:30.125Z,51.83
2018-02-08T17:57:57.054Z,55.15
2018-02-08T18:00:23.652Z,56.92
2018-02-08T18:02:50.536Z,56.15
2018-02-08T18:05:17.142Z,55.83
2018-02-08T18:07:43.757Z,53.78
2018-02-08T18:10:10.457Z,55.85
2018-02-08T18:12:37.153Z,56.45
2018-02-08T18:15:03.774Z,55.08
2018-02-08T18:17:30.402Z,54.55
2018-02-08T18:19:57.014Z,56.28
2018-02-08T18:22:23.639Z,59.55
2018-02-08T18:24:50.391Z,55.20
2018-02-08T18:27:16.997Z,51.03
2018-02-08T18:29:43.734Z,53.28
2018-02-08T18:32:10.373Z,52.50
2018-02-08T18:34:36.982Z,55.20
2018-02-08T18:37:04.157Z,53.92
2018-02-08T18:39:30.840Z,53.85
2018-02-08T19:57:30.052Z,53.27
2018-02-08T19:59:56.784Z,53.60
2018-02-08T20:02:23.423Z,54.95
2018-02-08T20:04:50.042Z,61.20
2018-02-08T20:07:16.666Z,59.25
2018-02-08T20:09:43.277Z,55.25
2018-02-08T20:12:09.978Z,53.53
2018-02-08T20:14:40.124Z,56.67
2018-02-08T20:17:06.742Z,53.42
2018-02-08T20:19:33.371Z,52.17
2018-02-08T20:21:59.977Z,51.47
2018-02-08T20:24:26.591Z,57.90
2018-02-08T20:26:53.293Z,53.45
2018-02-08T20:29:19.932Z,55.88
2018-02-08T20:31:47.497Z,54.45
2018-02-08T20:34:14.126Z,51.17
2018-02-08T20:36:40.749Z,56.80
2018-02-08T20:39:07.358Z,56.33
2018-02-08T20:41:33.986Z,54.42
2018-02-08T20:44:00.730Z,58.47
2018-02-08T20:46:27.341Z,59.60
2018-02-08T20:48:53.971Z,58.90
2018-02-08T20:51:20.585Z,58.67
2018-02-08T20:53:47.253Z,55.47
2018-02-08T23:49:15.465Z,59.10
2018-02-08T23:51:42.081Z,55.80
